createdAt,value
2022-12-05T00:00:27.920Z,89.88
2022-12-05T00:04:30.937Z,90.09
2022-12-05T00:08:35.275Z,90.34
2022-12-05T00:12:38.247Z,90.14
2022-12-05T00:16:43.555Z,89.93
2022-12-05T00:20:46.885Z,90.08
2022-12-05T00:24:51.176Z,89.92
2022-12-05T00:28:55.107Z,90.15
2022-12-05T00:32:58.873Z,89.92
2022-12-05T00:37:01.815Z,89.87
2022-12-05T00:41:08.447Z,90.02
2022-12-05T00:45:12.315Z,90.22
2022-12-05T00:49:15.348Z,90.46
2022-12-05T00:53:18.290Z,89.82
2022-12-05T00:57:23.779Z,90.37
2022-12-05T01:01:28.922Z,90.35
2022-12-05T01:05:31.875Z,90.15
2022-12-05T01:09:35.010Z,90.27
2022-12-05T01:13:39.388Z,90.31
2022-12-05T01:17:42.291Z,90.02
2022-12-05T01:21:46.055Z,90.32
2022-12-05T01:25:51.607Z,90.22
2022-12-05T01:29:56.160Z,90.01
2022-12-05T01:34:01.768Z,89.93
2022-12-05T01:38:04.786Z,89.94
2022-12-05T01:42:07.938Z,90.08
2022-12-05T01:46:12.250Z,89.78
2022-12-05T01:50:15.643Z,89.85
2022-12-05T01:54:20.899Z,89.72
2022-12-05T01:58:29.764Z,89.70
2022-12-05T02:02:34.386Z,89.44
2022-12-05T02:06:37.647Z,89.47
2022-12-05T02:10:44.255Z,89.17
2022-12-05T02:14:59.010Z,89.07
2022-12-05T02:19:25.484Z,88.87
2022-12-05T02:23:44.400Z,88.56
2022-12-05T02:28:18.207Z,88.29
2022-12-05T02:32:33.837Z,88.09
2022-12-05T02:36:44.001Z,88.09
2022-12-05T02:40:57.110Z,88.28
2022-12-05T02:45:07.150Z,88.12
2022-12-05T02:49:14.345Z,88.19
2022-12-05T02:53:18.802Z,88.06
2022-12-05T02:57:24.674Z,87.98
2022-12-05T03:01:31.507Z,87.90
2022-12-05T03:05:42.225Z,87.76
2022-12-05T03:09:49.549Z,87.57
2022-12-05T03:13:56.718Z,87.69
2022-12-05T03:18:06.637Z,87.29
2022-12-05T03:22:18.639Z,87.61
2022-12-05T03:26:37.458Z,87.30
2022-12-05T03:30:40.636Z,87.24
2022-12-05T03:34:51.121Z,87.47
2022-12-05T03:38:59.022Z,87.49
2022-12-05T03:43:10.319Z,87.59
2022-12-05T03:47:18.814Z,87.19
2022-12-05T03:51:26.550Z,87.34
2022-12-05T03:55:35.890Z,87.25
2022-12-05T03:59:42.256Z,87.05
2022-12-05T04:03:51.801Z,87.06
2022-12-05T04:08:02.095Z,87.22
2022-12-05T04:12:12.418Z,87.27
2022-12-05T04:16:38.210Z,87.00
2022-12-05T04:21:00.997Z,87.02
2022-12-05T04:25:24.038Z,87.03
2022-12-05T04:29:33.168Z,87.20
2022-12-05T04:33:43.043Z,87.07
2022-12-05T04:37:48.724Z,87.05
2022-12-05T04:41:55.238Z,86.84
2022-12-05T04:46:02.101Z,86.95
2022-12-05T04:50:08.349Z,86.99
2022-12-05T04:54:18.414Z,86.88
2022-12-05T04:58:23.798Z,86.83
2022-12-05T05:02:34.635Z,86.74
2022-12-05T05:06:38.712Z,86.87
2022-12-05T05:10:51.811Z,86.83
2022-12-05T05:14:54.715Z,86.91
2022-12-05T05:18:59.198Z,87.04
2022-12-05T05:23:02.610Z,87.07
2022-12-05T05:27:05.738Z,87.02
2022-12-05T05:31:09.058Z,86.76
2022-12-05T05:35:14.039Z,86.71
2022-12-05T05:39:16.984Z,86.85
2022-12-05T05:43:19.896Z,87.00
2022-12-05T05:47:23.001Z,86.93
2022-12-05T05:51:29.324Z,87.13
2022-12-05T05:55:32.249Z,87.20
2022-12-05T05:59:35.445Z,87.47
2022-12-05T06:03:38.649Z,87.45
2022-12-05T06:07:43.167Z,87.30
2022-12-05T06:11:46.165Z,87.56
2022-12-05T06:15:49.296Z,87.40
2022-12-05T06:19:52.222Z,87.32
2022-12-05T06:23:56.902Z,87.60
2022-12-05T06:27:59.846Z,87.54
2022-12-05T06:32:03.031Z,87.57
2022-12-05T06:36:07.982Z,87.76
2022-12-05T06:40:13.783Z,87.51
2022-12-05T06:44:16.691Z,87.77
2022-12-05T06:48:19.684Z,87.70
2022-12-05T06:52:22.641Z,87.79
2022-12-05T06:56:27.084Z,87.82
2022-12-05T07:00:47.577Z,87.78
2022-12-05T07:04:50.476Z,87.88
2022-12-05T07:08:53.756Z,87.92
2022-12-05T07:12:57.995Z,87.87
2022-12-05T07:17:01.339Z,87.97
2022-12-05T07:21:14.474Z,88.12
2022-12-05T07:25:17.774Z,88.22
2022-12-05T07:29:22.094Z,88.34
2022-12-05T07:33:25.016Z,88.16
2022-12-05T07:37:28.110Z,88.30
2022-12-05T07:41:33.528Z,88.20
2022-12-05T07:45:43.651Z,87.87
2022-12-05T07:49:46.598Z,88.05
2022-12-05T07:53:49.737Z,87.84
2022-12-05T07:57:52.619Z,87.94
2022-12-05T08:01:57.047Z,88.03
2022-12-05T08:06:04.176Z,88.11
2022-12-05T08:10:08.597Z,88.00
2022-12-05T08:14:11.948Z,88.15
2022-12-05T08:18:16.443Z,88.30
2022-12-05T08:22:19.342Z,87.94
2022-12-05T08:26:25.536Z,88.17
2022-12-05T08:30:28.566Z,88.28
2022-12-05T08:34:32.962Z,88.45
2022-12-05T08:38:36.425Z,88.36
2022-12-05T08:42:39.347Z,88.38
2022-12-05T08:46:42.297Z,88.35
2022-12-05T08:50:46.765Z,88.54
2022-12-05T08:54:49.676Z,88.52
2022-12-05T08:58:52.777Z,88.50
2022-12-05T09:02:55.734Z,88.53
2022-12-05T09:07:02.708Z,88.74
2022-12-05T09:11:07.462Z,88.55
2022-12-05T09:15:12.669Z,88.67
2022-12-05T09:19:17.825Z,88.92
2022-12-05T09:23:22.465Z,88.87
2022-12-05T09:27:25.545Z,89.05
2022-12-05T09:31:29.364Z,88.85
2022-12-05T09:35:32.351Z,88.94
2022-12-05T09:39:36.923Z,88.94
2022-12-05T09:43:49.753Z,88.96
2022-12-05T09:48:00.972Z,88.88
2022-12-05T09:52:05.956Z,88.94
2022-12-05T09:56:19.606Z,88.91
2022-12-05T10:00:22.707Z,88.71
2022-12-05T10:04:47.972Z,88.83
2022-12-05T10:09:08.798Z,88.75
2022-12-05T10:13:26.837Z,89.42
2022-12-05T10:17:33.742Z,89.02
2022-12-05T10:21:43.108Z,88.65
2022-12-05T10:25:46.928Z,88.71
2022-12-05T10:29:59.409Z,88.60
2022-12-05T10:34:06.064Z,88.65
2022-12-05T10:38:25.075Z,88.21
2022-12-05T10:42:32.694Z,88.05
2022-12-05T10:46:37.335Z,88.68
2022-12-05T10:50:43.257Z,88.51
2022-12-05T10:54:50.347Z,88.78
2022-12-05T10:58:56.857Z,88.84
2022-12-05T11:03:05.128Z,88.82
2022-12-05T11:07:08.388Z,88.79
2022-12-05T11:11:20.662Z,88.74
2022-12-05T11:15:26.278Z,88.79
2022-12-05T11:19:32.552Z,88.67
2022-12-05T11:23:35.756Z,88.59
2022-12-05T11:27:38.704Z,88.51
2022-12-05T11:31:51.798Z,88.75
2022-12-05T11:36:00.195Z,88.56
2022-12-05T11:40:13.464Z,88.86
2022-12-05T11:44:32.559Z,88.70
2022-12-05T11:49:01.355Z,89.16
2022-12-05T11:53:23.954Z,89.74
2022-12-05T11:57:47.412Z,88.64
2022-12-05T12:02:05.539Z,88.81
2022-12-05T12:06:26.395Z,88.85
2022-12-05T12:10:38.339Z,89.03
2022-12-05T12:14:47.592Z,88.94
2022-12-05T12:19:16.408Z,89.25
2022-12-05T12:23:37.219Z,89.01
2022-12-05T12:27:53.703Z,88.75
2022-12-05T12:32:11.195Z,88.55
2022-12-05T12:36:19.860Z,88.76
2022-12-05T12:40:27.682Z,88.97
2022-12-05T12:45:11.576Z,88.99
2022-12-05T12:49:32.933Z,89.16
2022-12-05T12:54:04.425Z,88.96
2022-12-05T12:58:18.961Z,89.42
2022-12-05T13:02:28.878Z,89.68
2022-12-05T13:06:39.477Z,89.90
2022-12-05T13:10:45.051Z,89.97
2022-12-05T13:14:53.359Z,89.79
2022-12-05T13:18:58.609Z,89.76
2022-12-05T13:23:07.933Z,90.15
2022-12-05T13:27:17.775Z,89.79
2022-12-05T13:31:35.026Z,89.90
2022-12-05T13:35:57.665Z,89.69
2022-12-05T13:40:18.276Z,89.85
2022-12-05T13:44:33.255Z,89.78
2022-12-05T13:48:39.673Z,90.07
2022-12-05T13:52:48.185Z,89.71
2022-12-05T13:56:54.251Z,90.06
2022-12-05T14:01:48.962Z,90.09
2022-12-05T14:05:56.149Z,90.20
2022-12-05T14:10:00.989Z,89.71
2022-12-05T14:14:05.244Z,89.72
2022-12-05T14:18:16.178Z,89.50
2022-12-05T14:22:51.150Z,89.76
2022-12-05T14:27:07.443Z,90.27
2022-12-05T14:31:27.868Z,90.47
2022-12-05T14:35:41.063Z,90.47
2022-12-05T14:39:47.232Z,90.57
2022-12-05T14:43:55.604Z,90.45
2022-12-05T14:48:00.364Z,90.53
2022-12-05T14:52:11.305Z,90.30
2022-12-05T14:56:22.730Z,90.27
2022-12-05T15:00:27.732Z,90.73
2022-12-05T15:04:36.734Z,90.48
2022-12-05T15:08:46.295Z,90.46
2022-12-05T15:12:52.613Z,90.02
2022-12-05T15:17:00.820Z,89.94
2022-12-05T15:21:10.909Z,89.78
2022-12-05T15:25:32.305Z,90.22
2022-12-05T15:29:36.358Z,90.44
2022-12-05T15:33:52.661Z,90.34
2022-12-05T15:38:00.245Z,90.13
2022-12-05T15:42:04.916Z,90.37
2022-12-05T15:46:09.945Z,90.34
2022-12-05T15:50:16.197Z,90.33
2022-12-05T15:54:28.850Z,90.29
2022-12-05T15:58:37.817Z,90.46
2022-12-05T16:02:45.862Z,90.35
2022-12-05T16:06:51.848Z,90.31
2022-12-05T16:10:55.713Z,90.06
2022-12-05T16:15:03.908Z,89.72
2022-12-05T16:19:16.407Z,89.05
2022-12-05T16:23:28.041Z,88.87
2022-12-05T16:27:34.574Z,88.81
2022-12-05T16:31:39.132Z,88.61
2022-12-05T16:35:45.476Z,88.48
2022-12-05T16:39:50.022Z,88.59
2022-12-05T16:43:54.038Z,88.60
2022-12-05T16:47:59.634Z,88.83
2022-12-05T16:52:12.401Z,88.67
2022-12-05T16:56:19.613Z,88.49
2022-12-05T17:00:23.289Z,88.49
2022-12-05T17:04:26.374Z,88.06
2022-12-05T17:08:29.510Z,88.00
2022-12-05T17:12:34.418Z,87.96
2022-12-05T17:16:37.448Z,87.87
2022-12-05T17:20:42.750Z,87.50
2022-12-05T17:24:45.864Z,87.71
2022-12-05T17:28:50.839Z,87.45
2022-12-05T17:32:53.812Z,87.41
2022-12-05T17:36:56.816Z,87.45
2022-12-05T17:41:02.644Z,87.27
2022-12-05T17:45:16.587Z,87.08
2022-12-05T17:49:20.075Z,87.26
2022-12-05T17:53:23.315Z,87.17
2022-12-05T17:57:26.342Z,87.08
2022-12-05T18:01:30.930Z,86.78
2022-12-05T18:05:33.901Z,86.83
2022-12-05T18:09:36.932Z,87.35
2022-12-05T18:13:40.093Z,87.33
2022-12-05T18:17:45.288Z,87.15
2022-12-05T18:21:48.314Z,87.09
2022-12-05T18:25:59.021Z,87.24
2022-12-05T18:30:02.204Z,87.17
2022-12-05T18:34:06.526Z,86.97
2022-12-05T18:38:10.824Z,86.88
2022-12-05T18:42:15.437Z,87.05
2022-12-05T18:46:18.983Z,86.98
2022-12-05T18:50:23.414Z,87.17
2022-12-05T18:54:27.303Z,87.27
2022-12-05T18:58:30.311Z,87.27
2022-12-05T19:02:33.551Z,87.20
2022-12-05T19:06:39.831Z,87.28
2022-12-05T19:10:42.921Z,87.20
2022-12-05T19:14:47.855Z,87.29
2022-12-05T19:18:55.765Z,87.12
2022-12-05T19:23:01.233Z,87.43
2022-12-05T19:27:04.311Z,87.10
2022-12-05T19:31:09.007Z,86.64
2022-12-05T19:35:12.193Z,86.56
2022-12-05T19:39:18.585Z,86.91
2022-12-05T19:43:21.804Z,87.44
2022-12-05T19:47:24.937Z,87.47
2022-12-05T19:51:28.470Z,87.44
2022-12-05T19:55:32.997Z,87.49
2022-12-05T19:59:35.959Z,87.30
2022-12-05T20:03:40.041Z,87.18
2022-12-05T20:07:43.462Z,87.04
2022-12-05T20:11:55.121Z,86.51
2022-12-05T20:16:02.454Z,86.76
2022-12-05T20:20:06.301Z,86.78
2022-12-05T20:24:11.507Z,86.46
2022-12-05T20:28:16.025Z,86.71
2022-12-05T20:32:18.982Z,86.71
2022-12-05T20:36:24.862Z,86.68
2022-12-05T20:40:27.799Z,86.19
2022-12-05T20:44:35.905Z,86.34
2022-12-05T20:48:39.006Z,86.33
2022-12-05T20:52:46.601Z,86.31
2022-12-05T20:56:50.194Z,85.98
2022-12-05T21:01:00.269Z,86.03
2022-12-05T21:05:03.531Z,86.27
2022-12-05T21:09:14.937Z,85.97
2022-12-05T21:13:18.118Z,85.85
2022-12-05T21:17:23.069Z,85.99
2022-12-05T21:21:28.885Z,86.27
2022-12-05T21:25:33.085Z,86.47
2022-12-05T21:29:37.568Z,86.22
2022-12-05T21:33:43.691Z,85.97
2022-12-05T21:37:46.770Z,85.76
2022-12-05T21:41:49.888Z,86.07
2022-12-05T21:45:53.970Z,86.63
2022-12-05T21:49:59.439Z,85.64
2022-12-05T21:54:02.647Z,86.22
2022-12-05T21:58:05.909Z,86.05
2022-12-05T22:02:11.104Z,85.99
2022-12-05T22:06:16.381Z,85.98
2022-12-05T22:10:19.577Z,85.85
2022-12-05T22:14:22.705Z,85.65
2022-12-05T22:18:25.744Z,85.75
2022-12-05T22:22:30.116Z,85.97
2022-12-05T22:26:33.263Z,86.04
2022-12-05T22:30:36.231Z,85.93
2022-12-05T22:34:39.197Z,85.95
2022-12-05T22:38:45.362Z,86.00
2022-12-05T22:42:48.299Z,85.74
2022-12-05T22:46:51.594Z,85.68
2022-12-05T22:50:55.793Z,85.89
2022-12-05T22:55:00.639Z,85.70
2022-12-05T22:59:04.707Z,85.80
2022-12-05T23:03:08.033Z,85.35
2022-12-05T23:07:11.428Z,85.34
2022-12-05T23:11:17.154Z,85.15
2022-12-05T23:15:20.164Z,84.71
2022-12-05T23:19:23.300Z,84.72
2022-12-05T23:23:26.261Z,84.81
2022-12-05T23:27:30.678Z,84.33
2022-12-05T23:31:34.100Z,84.43
2022-12-05T23:35:37.528Z,84.28
2022-12-05T23:39:40.801Z,83.88
2022-12-05T23:43:45.482Z,84.03
2022-12-05T23:47:48.468Z,83.43
2022-12-05T23:51:51.441Z,83.45
2022-12-05T23:55:54.415Z,82.98
2022-12-05T23:59:59.012Z,83.10
